Time;durP1;ratioP1;P1;durP2;ratioP2;P2;SDS_P1;SDS_P2;PMS_P1;PMS_P2;Temp;Humidity;BMP_temperature;BMP_pressure;BME280_temperature;BME280_humidity;BME280_pressure;Samples;Min_cycle;Max_cycle;Signal;HPM_P1;HPM_P2
2022/04/05 00:00:57;;;;;;;10.10;2.05;;;6.60;99.90;;;;;;4881100;29;20052;-65
2022/04/05 00:03:22;;;;;;;9.35;2.10;;;6.60;99.90;;;;;;4863712;29;20070;-68
2022/04/05 00:05:48;;;;;;;11.10;1.95;;;6.60;99.90;;;;;;4864273;29;20486;-69
2022/04/05 00:08:17;;;;;;;9.10;1.67;;;6.60;99.90;;;;;;4880258;29;20049;-69
2022/04/05 00:10:43;;;;;;;7.32;2.28;;;6.60;99.90;;;;;;4864086;29;20053;-68
2022/04/05 00:13:10;;;;;;;7.60;2.00;;;6.60;99.90;;;;;;4880883;29;20093;-69
2022/04/05 00:15:36;;;;;;;9.63;2.10;;;6.80;99.90;;;;;;4880683;29;20048;-69
2022/04/05 00:18:02;;;;;;;8.35;1.92;;;6.70;99.90;;;;;;4880575;29;20061;-69
2022/04/05 00:20:28;;;;;;;8.77;2.00;;;6.60;99.90;;;;;;4880611;29;20049;-68
2022/04/05 00:22:54;;;;;;;9.98;2.28;;;6.70;99.90;;;;;;4880087;29;20081;-68
2022/04/05 00:25:20;;;;;;;8.82;1.98;;;6.70;99.90;;;;;;4880765;29;20044;-69
2022/04/05 00:27:47;;;;;;;12.10;2.15;;;6.70;99.90;;;;;;4864209;29;20128;-69
2022/04/05 00:30:15;;;;;;;9.18;2.00;;;6.70;99.90;;;;;;4863888;29;20494;-68
2022/04/05 00:32:41;;;;;;;9.10;2.05;;;6.70;99.90;;;;;;4880697;29;20041;-69
2022/04/05 00:35:08;;;;;;;8.20;1.95;;;6.70;99.90;;;;;;4880646;29;20096;-69
2022/04/05 00:37:34;;;;;;;13.85;2.35;;;6.70;99.90;;;;;;4880526;29;20045;-70
2022/04/05 00:40:00;;;;;;;6.65;1.73;;;6.70;99.90;;;;;;4879704;29;20135;-67
2022/04/05 00:42:26;;;;;;;7.32;2.13;;;6.70;99.90;;;;;;4863794;29;20482;-68
2022/04/05 00:44:52;;;;;;;8.32;1.92;;;6.70;99.90;;;;;;4880089;29;20041;-68
2022/04/05 00:47:20;;;;;;;7.90;2.03;;;6.70;99.90;;;;;;4863613;29;20048;-68
2022/04/05 00:49:47;;;;;;;7.35;1.70;;;6.70;99.90;;;;;;4880144;29;20546;-68
2022/04/05 00:52:15;;;;;;;13.85;2.03;;;6.70;99.90;;;;;;4880184;29;20080;-68
2022/04/05 00:54:43;;;;;;;12.23;2.30;;;6.80;99.90;;;;;;4863000;29;20057;-67
2022/04/05 00:57:14;;;;;;;11.98;2.20;;;6.70;99.90;;;;;;4863445;29;20049;-68
2022/04/05 00:59:42;;;;;;;9.52;1.70;;;6.70;99.90;;;;;;4879725;29;20529;-70
2022/04/05 01:02:17;;;;;;;8.50;1.85;;;6.90;99.90;;;;;;4880249;29;20052;-67
2022/04/05 01:04:44;;;;;;;10.00;1.98;;;6.70;99.90;;;;;;4880052;29;20053;-68
2022/04/05 01:07:15;;;;;;;12.50;2.35;;;6.70;99.90;;;;;;4863200;29;20045;-69
2022/04/05 01:09:41;;;;;;;9.23;1.92;;;6.70;99.90;;;;;;4879845;29;20041;-68
2022/04/05 01:12:08;;;;;;;10.05;1.50;;;6.70;99.90;;;;;;4879111;29;20261;-68
2022/04/05 01:14:35;;;;;;;12.00;2.05;;;6.70;99.90;;;;;;4879937;29;20052;-67
2022/04/05 01:17:03;;;;;;;11.02;1.80;;;6.70;99.90;;;;;;4879882;29;20049;-68
2022/04/05 01:19:29;;;;;;;8.82;1.70;;;6.80;99.90;;;;;;4879492;29;20413;-68
2022/04/05 01:21:55;;;;;;;9.25;1.83;;;6.70;99.90;;;;;;4879673;29;20045;-68
2022/04/05 01:24:21;;;;;;;10.35;1.45;;;6.80;99.90;;;;;;4879561;29;20063;-67
2022/04/05 01:26:49;;;;;;;11.85;1.77;;;6.70;99.90;;;;;;4878898;29;20052;-68
2022/04/05 01:29:16;;;;;;;14.98;1.63;;;6.70;99.90;;;;;;4879687;29;20390;-69
2022/04/05 01:31:46;;;;;;;12.40;1.90;;;6.80;99.90;;;;;;4862639;29;20091;-68
2022/04/05 01:34:14;;;;;;;8.63;1.83;;;6.70;99.90;;;;;;4879657;29;20041;-69
2022/04/05 01:36:43;;;;;;;9.15;1.70;;;6.60;99.90;;;;;;4862920;29;20045;-69
2022/04/05 01:39:19;;;;;;;12.77;1.50;;;6.70;99.90;;;;;;4879552;29;20052;-68
2022/04/05 01:41:46;;;;;;;13.43;1.70;;;6.70;99.90;;;;;;4879260;29;20060;-69
2022/04/05 01:44:13;;;;;;;15.00;1.98;;;6.70;99.90;;;;;;4878681;29;20104;-68
2022/04/05 01:46:39;;;;;;;13.05;2.50;;;6.60;99.90;;;;;;4862623;29;20084;-68
2022/04/05 01:49:07;;;;;;;11.05;1.85;;;6.70;99.90;;;;;;4879488;29;20093;-69
2022/04/05 01:51:37;;;;;;;11.43;2.13;;;6.60;99.90;;;;;;4879261;29;20048;-67
2022/04/05 01:54:07;;;;;;;11.32;2.47;;;6.60;99.90;;;;;;4862476;29;20060;-68
2022/04/05 01:56:39;;;;;;;13.65;2.42;;;6.60;99.90;;;;;;4879454;29;20107;-68
2022/04/05 01:59:05;;;;;;;13.00;2.33;;;6.60;99.90;;;;;;4879927;29;20056;-68
2022/04/05 02:01:31;;;;;;;7.88;2.03;;;6.50;99.90;;;;;;4879070;29;20052;-68
2022/04/05 02:03:56;;;;;;;8.43;1.70;;;6.50;99.90;;;;;;4879118;29;20401;-68
2022/04/05 02:06:22;;;;;;;10.88;1.60;;;6.50;99.90;;;;;;4879158;29;20053;-68
2022/04/05 02:08:48;;;;;;;12.35;1.88;;;6.50;99.90;;;;;;4862259;29;20494;-70
2022/04/05 02:11:13;;;;;;;12.18;1.52;;;6.50;99.90;;;;;;4862562;29;20065;-69
2022/04/05 02:13:39;;;;;;;10.73;1.98;;;6.40;99.90;;;;;;4879289;29;20056;-69
2022/04/05 02:16:05;;;;;;;10.10;2.25;;;6.50;99.90;;;;;;4878500;29;20059;-67
2022/04/05 02:18:30;;;;;;;13.57;2.25;;;6.40;99.90;;;;;;4878599;29;20065;-68
2022/04/05 02:20:56;;;;;;;13.98;1.90;;;6.40;99.90;;;;;;4878818;29;20116;-68
2022/04/05 02:23:23;;;;;;;14.57;2.25;;;6.40;99.90;;;;;;4862101;29;20081;-67
2022/04/05 02:25:48;;;;;;;15.95;2.00;;;7.10;99.90;;;;;;4865513;29;20056;-67
2022/04/05 02:28:14;;;;;;;14.63;2.10;;;6.40;99.90;;;;;;4885108;29;20052;-67
2022/04/05 02:30:41;;;;;;;11.52;1.70;;;6.40;99.90;;;;;;4868106;29;20397;-68
2022/04/05 02:33:07;;;;;;;8.77;1.80;;;6.40;99.90;;;;;;4884786;29;20124;-69
2022/04/05 02:35:33;;;;;;;12.25;2.03;;;6.40;99.90;;;;;;4884997;29;20156;-68
2022/04/05 02:38:02;;;;;;;14.98;1.92;;;6.40;99.90;;;;;;4884870;29;20134;-69
2022/04/05 02:40:28;;;;;;;10.57;1.90;;;6.30;99.90;;;;;;4868035;29;20113;-68
2022/04/05 02:42:55;;;;;;;16.23;2.13;;;6.70;99.90;;;;;;4868213;29;20041;-70
2022/04/05 02:45:21;;;;;;;9.75;1.80;;;6.30;99.90;;;;;;4884940;29;20112;-66
2022/04/05 02:47:47;;;;;;;10.48;1.58;;;6.30;99.90;;;;;;4884501;29;20045;-68
2022/04/05 02:50:17;;;;;;;13.40;1.98;;;6.30;99.90;;;;;;4884627;29;20137;-71
2022/04/05 02:52:46;;;;;;;11.45;2.05;;;6.20;99.90;;;;;;4884720;29;20519;-68
2022/04/05 02:55:12;;;;;;;10.80;2.05;;;6.20;99.90;;;;;;4868037;29;20144;-70
2022/04/05 02:57:39;;;;;;;11.13;2.05;;;6.20;99.90;;;;;;4884849;29;20466;-66
2022/04/05 03:00:11;;;;;;;10.00;1.50;;;6.30;99.90;;;;;;4884844;29;20413;-69
2022/04/05 03:02:38;;;;;;;14.27;2.17;;;6.20;99.90;;;;;;4852932;29;20443;-69
2022/04/05 03:05:07;;;;;;;12.23;1.95;;;6.20;99.90;;;;;;4884454;29;20053;-69
2022/04/05 03:07:34;;;;;;;12.27;1.48;;;6.20;99.90;;;;;;4868124;29;20045;-69
2022/04/05 03:10:06;;;;;;;9.85;1.90;;;6.20;99.90;;;;;;4885013;29;20465;-68
2022/04/05 03:12:33;;;;;;;13.38;1.80;;;6.10;99.90;;;;;;4884741;29;20049;-68
2022/04/05 03:14:58;;;;;;;12.45;1.52;;;6.10;99.90;;;;;;4884744;29;20037;-69
2022/04/05 03:17:24;;;;;;;17.42;2.03;;;6.10;99.90;;;;;;4886447;29;20053;-69
2022/04/05 03:19:50;;;;;;;11.18;1.63;;;6.10;99.90;;;;;;4883729;29;20099;-71
2022/04/05 03:22:18;;;;;;;9.93;1.70;;;6.10;99.90;;;;;;4884351;29;20053;-69
2022/04/05 03:24:44;;;;;;;14.07;1.60;;;6.10;99.90;;;;;;4884530;29;20497;-70
2022/04/05 03:27:10;;;;;;;9.15;1.80;;;6.10;99.90;;;;;;4867860;29;20056;-68
2022/04/05 03:29:35;;;;;;;15.75;2.67;;;6.10;99.90;;;;;;4884677;29;20390;-67
2022/04/05 03:32:02;;;;;;;18.40;2.17;;;6.50;99.90;;;;;;4884454;29;20049;-69
2022/04/05 03:34:29;;;;;;;16.58;2.05;;;6.10;99.90;;;;;;4884128;29;20414;-70
2022/04/05 03:36:54;;;;;;;17.23;2.17;;;6.10;99.90;;;;;;4864796;29;20041;-69
2022/04/05 03:39:20;;;;;;;15.07;1.83;;;6.30;99.90;;;;;;4881655;29;20075;-70
2022/04/05 03:41:46;;;;;;;16.00;1.73;;;6.10;99.90;;;;;;4881607;29;20128;-69
2022/04/05 03:44:12;;;;;;;15.65;2.40;;;6.10;99.90;;;;;;4881587;29;20506;-69
2022/04/05 03:46:37;;;;;;;18.20;1.83;;;6.10;99.90;;;;;;4881631;29;20056;-69
2022/04/05 03:49:04;;;;;;;18.17;2.08;;;6.10;99.90;;;;;;4864381;29;20062;-70
2022/04/05 03:51:30;;;;;;;19.55;2.33;;;6.10;99.90;;;;;;4880701;29;20482;-68
2022/04/05 03:53:56;;;;;;;14.45;2.72;;;6.20;99.90;;;;;;4881075;29;20139;-71
2022/04/05 03:56:22;;;;;;;14.45;2.28;;;6.00;99.90;;;;;;4881466;29;20068;-70
2022/04/05 03:58:49;;;;;;;13.63;2.60;;;6.00;99.90;;;;;;4881173;29;20056;-69
2022/04/05 04:01:15;;;;;;;14.30;2.40;;;6.00;99.90;;;;;;4880927;29;20053;-70
2022/04/05 04:03:40;;;;;;;21.60;2.47;;;6.00;99.90;;;;;;4881194;29;20058;-67
2022/04/05 04:06:06;;;;;;;14.68;2.40;;;6.00;99.90;;;;;;4880951;29;20480;-68
2022/04/05 04:08:32;;;;;;;19.67;2.38;;;6.00;99.90;;;;;;4880268;29;20045;-70
2022/04/05 04:10:58;;;;;;;15.65;2.45;;;6.20;99.90;;;;;;4880865;29;20100;-68
2022/04/05 04:13:24;;;;;;;16.73;2.55;;;6.00;99.90;;;;;;4864266;29;20049;-69
2022/04/05 04:15:49;;;;;;;16.63;2.88;;;6.00;99.90;;;;;;4880559;29;20458;-69
2022/04/05 04:18:15;;;;;;;16.90;1.88;;;6.10;99.90;;;;;;4868548;29;20061;-70
2022/04/05 04:20:43;;;;;;;17.58;2.10;;;6.00;99.90;;;;;;4882608;29;20068;-68
2022/04/05 04:23:09;;;;;;;12.15;1.88;;;6.10;99.90;;;;;;4899036;29;20503;-68
2022/04/05 04:25:37;;;;;;;18.02;2.55;;;6.10;99.90;;;;;;4899438;29;20481;-69
2022/04/05 04:28:05;;;;;;;14.13;2.33;;;6.10;99.90;;;;;;4867289;29;20514;-68
2022/04/05 04:30:32;;;;;;;13.93;2.22;;;6.10;99.90;;;;;;4882647;29;20072;-69
2022/04/05 04:32:57;;;;;;;17.85;2.35;;;6.10;99.90;;;;;;4899199;29;20080;-68
2022/04/05 04:35:23;;;;;;;14.55;2.13;;;6.10;99.90;;;;;;4882314;29;20076;-68
2022/04/05 04:37:49;;;;;;;19.35;2.70;;;6.10;99.90;;;;;;4899195;29;20051;-68
2022/04/05 04:40:14;;;;;;;11.32;1.85;;;6.10;99.90;;;;;;4898434;29;20045;-67
2022/04/05 04:42:42;;;;;;;11.18;1.67;;;6.10;99.90;;;;;;4899189;29;20040;-69
2022/04/05 04:45:08;;;;;;;12.00;2.13;;;6.10;99.90;;;;;;4899027;29;20127;-69
2022/04/05 04:47:33;;;;;;;11.18;1.67;;;6.10;99.90;;;;;;4898991;29;20244;-69
2022/04/05 04:49:59;;;;;;;13.55;2.03;;;6.00;99.90;;;;;;4898679;29;20131;-69
2022/04/05 04:52:26;;;;;;;17.77;2.45;;;6.00;99.90;;;;;;4866457;29;20165;-69
2022/04/05 04:54:52;;;;;;;10.60;1.65;;;6.00;99.90;;;;;;4898397;29;20108;-69
2022/04/05 04:57:18;;;;;;;12.50;1.60;;;6.20;99.90;;;;;;4898410;29;20041;-68
2022/04/05 04:59:43;;;;;;;10.00;2.00;;;6.00;99.90;;;;;;4898841;29;20055;-69
2022/04/05 05:02:09;;;;;;;18.15;1.85;;;6.00;99.90;;;;;;4898932;29;20041;-68
2022/04/05 05:04:35;;;;;;;12.63;1.95;;;6.00;99.90;;;;;;4881873;29;20056;-68
2022/04/05 05:07:01;;;;;;;11.98;1.77;;;6.70;99.90;;;;;;4881974;29;20036;-71
2022/04/05 05:09:26;;;;;;;8.93;1.35;;;6.00;99.90;;;;;;4881705;29;20493;-68
2022/04/05 05:11:52;;;;;;;13.43;1.90;;;6.00;99.90;;;;;;4880737;29;20052;-68
2022/04/05 05:14:18;;;;;;;11.90;2.20;;;6.00;99.90;;;;;;4881577;29;20159;-69
2022/04/05 05:16:43;;;;;;;10.70;1.60;;;6.00;99.90;;;;;;4881653;29;20056;-69
2022/04/05 05:19:09;;;;;;;11.73;1.63;;;6.00;99.90;;;;;;4898352;29;20060;-69
2022/04/05 05:21:35;;;;;;;6.97;1.27;;;6.00;99.90;;;;;;4898385;29;20049;-70
2022/04/05 05:24:01;;;;;;;10.80;1.50;;;6.00;99.90;;;;;;4898260;29;20053;-69
2022/04/05 05:26:27;;;;;;;19.33;2.22;;;6.10;99.90;;;;;;4881460;29;20052;-69
2022/04/05 05:28:52;;;;;;;10.05;1.45;;;6.10;99.90;;;;;;4880916;29;20056;-69
2022/04/05 05:31:18;;;;;;;10.38;2.33;;;6.10;99.90;;;;;;4898282;29;20044;-68
2022/04/05 05:33:43;;;;;;;6.25;1.60;;;6.10;99.90;;;;;;4898285;29;20402;-69
2022/04/05 05:36:09;;;;;;;9.27;1.58;;;6.10;99.90;;;;;;4881439;29;20048;-68
2022/04/05 05:38:35;;;;;;;12.75;2.00;;;6.30;99.90;;;;;;4898053;29;20525;-68
2022/04/05 05:41:00;;;;;;;6.72;1.08;;;6.10;99.90;;;;;;4897779;29;20041;-69
2022/04/05 05:43:26;;;;;;;10.10;1.40;;;6.10;99.90;;;;;;4897698;29;20084;-68
2022/04/05 05:45:52;;;;;;;9.88;1.30;;;6.20;99.90;;;;;;4881089;29;20135;-69
2022/04/05 05:48:18;;;;;;;9.45;1.60;;;6.20;99.90;;;;;;4898176;29;20048;-69
2022/04/05 05:50:44;;;;;;;8.30;1.25;;;6.20;99.90;;;;;;4881233;29;20560;-70
2022/04/05 05:53:10;;;;;;;10.85;1.98;;;6.30;99.90;;;;;;4881197;29;20052;-69
2022/04/05 05:55:35;;;;;;;6.43;1.02;;;6.30;99.90;;;;;;4897713;29;20413;-68
2022/04/05 05:58:03;;;;;;;10.38;1.27;;;6.30;99.90;;;;;;4881039;29;20052;-68
2022/04/05 06:00:29;;;;;;;6.05;1.10;;;6.30;99.90;;;;;;4896548;29;20096;-69
2022/04/05 06:02:58;;;;;;;6.63;1.23;;;6.30;99.90;;;;;;4881067;29;20135;-69
2022/04/05 06:05:26;;;;;;;11.07;1.25;;;6.70;99.90;;;;;;4897811;29;20116;-68
2022/04/05 06:07:53;;;;;;;9.13;1.50;;;6.40;99.90;;;;;;4880742;29;20108;-75
2022/04/05 06:10:20;;;;;;;8.27;1.40;;;6.50;99.90;;;;;;4897433;29;20489;-69
2022/04/05 06:12:48;;;;;;;18.52;2.53;;;6.80;99.90;;;;;;4897718;29;20119;-69
2022/04/05 06:15:15;;;;;;;5.40;1.50;;;6.50;99.90;;;;;;4897119;29;20564;-69
2022/04/05 06:17:43;;;;;;;9.43;1.48;;;6.80;99.90;;;;;;4897064;29;20183;-68
2022/04/05 06:20:11;;;;;;;11.13;1.30;;;6.60;99.90;;;;;;4861961;29;20143;-67
2022/04/05 06:22:48;;;;;;;18.20;2.03;;;6.60;99.90;;;;;;4878338;29;20451;-67
2022/04/05 06:25:17;;;;;;;7.57;1.33;;;6.60;99.90;;;;;;4878947;29;20387;-68
2022/04/05 06:27:42;;;;;;;2.70;0.98;;;6.70;99.90;;;;;;4887851;29;20100;-69
2022/04/05 06:30:10;;;;;;;10.88;1.42;;;6.70;99.90;;;;;;4871824;29;20095;-69
2022/04/05 06:32:35;;;;;;;9.98;2.05;;;6.70;99.90;;;;;;4881113;29;20041;-83
2022/04/05 06:35:03;;;;;;;4.80;1.00;;;6.80;99.90;;;;;;4876332;29;20049;-68
2022/04/05 06:37:28;;;;;;;13.35;1.95;;;6.80;99.90;;;;;;4877541;29;20045;-78
2022/04/05 06:39:54;;;;;;;10.50;1.30;;;6.80;99.90;;;;;;4877665;29;20065;-70
2022/04/05 06:42:20;;;;;;;8.85;1.13;;;6.80;99.90;;;;;;4878034;29;20049;-69
2022/04/05 06:44:46;;;;;;;9.25;1.58;;;6.80;99.90;;;;;;4877534;29;20056;-70
2022/04/05 06:47:12;;;;;;;12.30;1.48;;;6.90;99.90;;;;;;4859702;29;20070;-68
2022/04/05 06:49:38;;;;;;;7.57;1.67;;;6.90;99.90;;;;;;4876886;29;20618;-74
2022/04/05 06:52:04;;;;;;;13.88;1.90;;;6.90;99.90;;;;;;4876936;29;20052;-73
2022/04/05 06:54:30;;;;;;;13.38;1.48;;;6.90;99.90;;;;;;4877667;29;20049;-72
2022/04/05 06:56:55;;;;;;;8.30;1.42;;;7.10;99.90;;;;;;4876988;29;20041;-73
2022/04/05 06:59:21;;;;;;;11.13;1.30;;;7.20;99.90;;;;;;4877118;29;20150;-70
2022/04/05 07:01:47;;;;;;;4.68;1.40;;;7.00;99.90;;;;;;4877407;29;20493;-76
2022/04/05 07:04:12;;;;;;;10.73;2.22;;;7.10;99.90;;;;;;4876287;29;20073;-72
2022/04/05 07:06:38;;;;;;;11.38;1.75;;;7.20;99.90;;;;;;4877298;29;20132;-73
2022/04/05 07:09:05;;;;;;;6.28;1.70;;;7.10;99.90;;;;;;4860670;29;20045;-70
2022/04/05 07:11:32;;;;;;;7.72;1.50;;;7.20;99.90;;;;;;4865233;29;20073;-75
2022/04/05 07:13:58;;;;;;;9.27;1.45;;;7.30;99.90;;;;;;4882166;29;20057;-78
2022/04/05 07:16:23;;;;;;;11.45;2.20;;;7.30;99.90;;;;;;4899322;29;20049;-72
2022/04/05 07:18:49;;;;;;;5.78;1.20;;;7.40;99.90;;;;;;4890509;29;20386;-75
2022/04/05 07:21:17;;;;;;;13.43;2.15;;;7.50;99.90;;;;;;4901001;29;20142;-73
2022/04/05 07:23:44;;;;;;;10.48;1.92;;;7.50;99.90;;;;;;4917988;29;20044;-75
2022/04/05 07:26:10;;;;;;;11.90;2.17;;;7.60;99.90;;;;;;4918221;29;20465;-80
2022/04/05 07:28:36;;;;;;;6.88;1.58;;;7.60;99.90;;;;;;4917918;29;20571;-72
2022/04/05 07:31:03;;;;;;;7.40;1.40;;;7.70;99.90;;;;;;4918223;29;20066;-71
2022/04/05 07:33:29;;;;;;;6.00;1.42;;;7.70;99.90;;;;;;4899989;29;20503;-72
2022/04/05 07:35:54;;;;;;;8.27;1.75;;;7.80;99.90;;;;;;4917614;29;20048;-75
2022/04/05 07:38:20;;;;;;;10.48;1.70;;;7.80;99.90;;;;;;4900920;29;20096;-71
2022/04/05 07:40:49;;;;;;;5.68;1.98;;;7.90;99.90;;;;;;4906068;29;20108;-75
2022/04/05 07:43:17;;;;;;;7.30;1.40;;;7.90;99.90;;;;;;4897965;29;20115;-70
2022/04/05 07:45:44;;;;;;;5.93;1.20;;;7.90;99.90;;;;;;4879810;29;20052;-77
2022/04/05 07:48:10;;;;;;;6.07;1.52;;;8.10;99.90;;;;;;4897675;29;20071;-75
2022/04/05 07:50:36;;;;;;;10.75;1.40;;;7.80;99.90;;;;;;4896048;29;20497;-71
2022/04/05 07:53:02;;;;;;;6.00;1.83;;;7.80;99.90;;;;;;4896351;29;20045;-73
2022/04/05 07:55:28;;;;;;;4.60;1.85;;;7.80;99.90;;;;;;4895359;29;20606;-73
2022/04/05 07:57:54;;;;;;;12.95;1.48;;;7.80;99.90;;;;;;4897404;29;20048;-71
2022/04/05 08:00:22;;;;;;;4.07;1.10;;;7.80;99.90;;;;;;4899313;29;20085;-72
2022/04/05 08:02:47;;;;;;;8.48;1.42;;;7.90;99.90;;;;;;4901029;29;20134;-75
2022/04/05 08:05:14;;;;;;;4.85;1.40;;;7.80;99.90;;;;;;4879812;29;20056;-76
2022/04/05 08:07:40;;;;;;;8.00;1.30;;;7.80;99.90;;;;;;4896306;29;20184;-75
2022/04/05 08:10:06;;;;;;;10.73;1.52;;;8.00;99.90;;;;;;4878665;29;20157;-76
2022/04/05 08:12:39;;;;;;;10.77;1.70;;;7.90;99.90;;;;;;4897306;29;20052;-73
2022/04/05 08:15:05;;;;;;;13.15;2.03;;;7.90;99.90;;;;;;4875764;29;20188;-74
2022/04/05 08:17:31;;;;;;;8.68;1.77;;;7.80;99.90;;;;;;4897595;29;20044;-78
2022/04/05 08:19:57;;;;;;;10.23;1.65;;;7.80;99.90;;;;;;4876980;29;20103;-76
2022/04/05 08:22:22;;;;;;;5.70;1.35;;;7.90;99.90;;;;;;4879518;29;20242;-74
2022/04/05 08:24:48;;;;;;;9.55;1.85;;;7.80;99.90;;;;;;4893413;29;20044;-74
2022/04/05 08:27:13;;;;;;;6.18;1.80;;;7.80;99.90;;;;;;4894066;29;20052;-73
2022/04/05 08:29:40;;;;;;;9.98;1.70;;;7.80;99.90;;;;;;4894198;29;20048;-71
2022/04/05 08:32:06;;;;;;;11.35;1.80;;;7.80;99.90;;;;;;4894796;29;20056;-77
2022/04/05 08:34:32;;;;;;;8.25;1.90;;;7.80;99.90;;;;;;4878737;29;20057;-72
2022/04/05 08:36:58;;;;;;;7.07;1.63;;;8.10;99.90;;;;;;4863000;29;20047;-72
2022/04/05 08:39:23;;;;;;;6.03;2.13;;;7.80;99.90;;;;;;4893581;29;20049;-76
2022/04/05 08:41:52;;;;;;;6.18;1.85;;;7.80;99.90;;;;;;4894982;29;20044;-74
2022/04/05 08:44:20;;;;;;;7.68;1.60;;;7.90;99.90;;;;;;4895432;29;20061;-75
2022/04/05 08:46:46;;;;;;;6.80;1.90;;;7.90;99.90;;;;;;4892450;29;20515;-73
2022/04/05 08:49:12;;;;;;;8.85;1.70;;;8.00;99.90;;;;;;4878161;29;20061;-73
2022/04/05 08:51:38;;;;;;;5.72;1.50;;;7.90;99.90;;;;;;4891651;29;20416;-72
2022/04/05 08:54:03;;;;;;;7.43;1.42;;;7.90;99.90;;;;;;4881354;29;20400;-74
2022/04/05 08:56:30;;;;;;;4.53;1.80;;;7.90;99.90;;;;;;4895381;29;20044;-72
2022/04/05 08:58:57;;;;;;;4.22;1.60;;;7.90;99.90;;;;;;4877211;29;20048;-68
2022/04/05 09:01:23;;;;;;;5.25;1.33;;;8.00;99.90;;;;;;4892323;29;20140;-71
2022/04/05 09:03:49;;;;;;;8.20;1.95;;;7.90;99.90;;;;;;4892551;29;20536;-73
2022/04/05 09:06:29;;;;;;;10.90;1.77;;;7.90;99.90;;;;;;4896884;29;20569;-73
2022/04/05 09:09:05;;;;;;;9.40;1.40;;;8.30;99.90;;;;;;4897478;29;20048;-73
2022/04/05 09:11:31;;;;;;;7.35;1.70;;;8.00;99.90;;;;;;4875880;29;20374;-70
2022/04/05 09:14:02;;;;;;;8.73;1.70;;;8.00;99.90;;;;;;4894587;29;20055;-77
2022/04/05 09:16:31;;;;;;;9.40;1.60;;;8.10;99.90;;;;;;4877115;29;20054;-71
2022/04/05 09:19:00;;;;;;;5.85;1.60;;;8.10;99.90;;;;;;4893910;29;20065;-72
2022/04/05 09:21:46;;;;;;;8.00;1.80;;;8.20;99.90;;;;;;4892699;29;20059;-71
2022/04/05 09:24:12;;;;;;;6.50;1.50;;;8.60;99.90;;;;;;4894976;29;20048;-70
2022/04/05 09:26:46;;;;;;;5.72;1.42;;;8.20;99.90;;;;;;4895267;29;20096;-73
2022/04/05 09:29:13;;;;;;;5.65;1.48;;;8.30;99.90;;;;;;4894487;29;20176;-74
2022/04/05 09:31:48;;;;;;;4.28;1.45;;;8.40;99.90;;;;;;4895247;29;20092;-72
2022/04/05 09:34:17;;;;;;;5.35;1.48;;;8.60;99.90;;;;;;4882644;29;20065;-70
2022/04/05 09:36:45;;;;;;;4.55;1.38;;;8.60;99.90;;;;;;4883436;29;20063;-72
2022/04/05 09:39:21;;;;;;;6.47;1.98;;;8.80;99.90;;;;;;4876380;29;20509;-73
2022/04/05 09:41:49;;;;;;;7.88;1.80;;;8.80;99.90;;;;;;4893265;29;20056;-71
2022/04/05 09:44:33;;;;;;;4.63;1.50;;;9.00;99.90;;;;;;4881101;29;20036;-78
2022/04/05 09:47:07;;;;;;;4.20;1.40;;;8.90;99.90;;;;;;4897614;29;20123;-79
2022/04/05 09:49:36;;;;;;;5.10;2.08;;;9.00;99.90;;;;;;4893043;29;20147;-71
2022/04/05 09:52:03;;;;;;;6.03;1.23;;;9.00;99.90;;;;;;4879120;29;20409;-69
2022/04/05 09:54:30;;;;;;;4.47;1.52;;;9.00;99.90;;;;;;4893110;29;20446;-74
2022/04/05 09:57:15;;;;;;;5.63;1.40;;;9.00;99.90;;;;;;4893319;29;20160;-76
2022/04/05 09:59:42;;;;;;;5.95;1.60;;;8.90;99.90;;;;;;4891304;29;20112;-74
2022/04/05 10:02:16;;;;;;;6.10;1.90;;;8.90;99.90;;;;;;4861603;29;20103;-73
2022/04/05 10:05:18;;;;;;;5.18;1.40;;;8.90;99.90;;;;;;4893992;29;20053;-73
2022/04/05 10:07:45;;;;;;;3.03;1.30;;;8.90;99.90;;;;;;4838576;29;20106;-76
2022/04/05 10:10:12;;;;;;;4.57;1.30;;;8.90;99.90;;;;;;4844807;29;20093;-71
2022/04/05 10:12:37;;;;;;;7.45;1.50;;;8.90;99.90;;;;;;4841579;29;20079;-71
2022/04/05 10:15:03;;;;;;;3.08;1.23;;;8.90;99.90;;;;;;4839515;29;20062;-70
2022/04/05 10:17:29;;;;;;;5.63;1.60;;;8.90;99.90;;;;;;4823849;29;20747;-73
2022/04/05 10:19:57;;;;;;;4.13;1.27;;;9.00;99.90;;;;;;4825702;29;20058;-72
2022/04/05 10:22:24;;;;;;;4.85;1.27;;;9.00;99.90;;;;;;4838541;29;20066;-72
2022/04/05 10:24:52;;;;;;;3.10;1.10;;;8.90;99.90;;;;;;4837812;29;20078;-70
2022/04/05 10:27:18;;;;;;;2.88;1.20;;;8.90;99.90;;;;;;4850286;29;20062;-74
2022/04/05 10:29:46;;;;;;;7.38;1.58;;;8.80;99.90;;;;;;4843506;29;20492;-72
2022/04/05 10:32:33;;;;;;;4.63;1.50;;;8.80;99.90;;;;;;4842780;29;20182;-73
2022/04/05 10:35:08;;;;;;;4.70;1.88;;;8.90;99.90;;;;;;4839080;29;20088;-75
2022/04/05 10:37:38;;;;;;;6.82;1.60;;;9.00;99.90;;;;;;4841278;29;20084;-79
2022/04/05 10:40:10;;;;;;;5.10;1.15;;;8.90;99.90;;;;;;4823731;29;20470;-73
2022/04/05 10:42:53;;;;;;;4.28;1.60;;;9.00;99.90;;;;;;4869689;29;20139;-78
2022/04/05 10:45:26;;;;;;;3.88;1.30;;;9.10;99.90;;;;;;4891515;29;20494;-74
2022/04/05 10:48:18;;;;;;;4.68;1.33;;;9.20;99.90;;;;;;4880232;29;20509;-74
2022/04/05 10:51:05;;;;;;;5.50;1.50;;;9.20;99.90;;;;;;4894806;29;20051;-73
2022/04/05 10:53:39;;;;;;;4.72;1.27;;;9.20;99.90;;;;;;4878912;29;20068;-77
2022/04/05 10:56:09;;;;;;;6.22;1.50;;;9.20;99.90;;;;;;4880481;29;20049;-78
2022/04/05 10:59:02;;;;;;;2.90;0.85;;;9.10;99.90;;;;;;4881576;29;20850;-76
2022/04/05 11:01:43;;;;;;;3.95;1.30;;;9.10;99.90;;;;;;4878438;29;20059;-76
2022/04/05 11:04:12;;;;;;;2.78;1.00;;;8.80;99.90;;;;;;4880215;29;20548;-80
2022/04/05 11:07:00;;;;;;;5.22;1.33;;;9.00;99.90;;;;;;4878599;29;20060;-73
2022/04/05 11:09:59;;;;;;;3.05;1.25;;;9.00;99.90;;;;;;4888216;29;20519;-74
2022/04/05 11:12:30;;;;;;;5.65;1.55;;;9.00;99.90;;;;;;4809771;29;20070;-78
2022/04/05 11:15:03;;;;;;;4.78;1.40;;;9.00;99.90;;;;;;4822206;29;20529;-71
2022/04/05 11:17:31;;;;;;;3.90;1.33;;;9.20;99.90;;;;;;4818961;29;20058;-78
2022/04/05 11:19:58;;;;;;;6.72;1.05;;;8.80;99.90;;;;;;4819067;29;20457;-76
2022/04/05 11:22:25;;;;;;;2.35;0.90;;;8.80;99.90;;;;;;4805747;29;20066;-70
2022/04/05 11:24:51;;;;;;;4.00;1.08;;;8.80;99.90;;;;;;4806166;29;20240;-69
2022/04/05 11:27:30;;;;;;;4.18;1.20;;;8.80;99.90;;;;;;4806738;29;20059;-70
2022/04/05 11:30:23;;;;;;;6.07;1.10;;;9.00;99.90;;;;;;4804287;29;20495;-68
2022/04/05 11:33:09;;;;;;;1.70;0.90;;;9.20;99.90;;;;;;4806508;29;20087;-73
2022/04/05 11:35:45;;;;;;;2.38;1.08;;;9.30;99.90;;;;;;4817042;29;20390;-69
2022/04/05 11:38:33;;;;;;;4.28;1.35;;;9.30;99.90;;;;;;4808947;29;20542;-79
2022/04/05 11:41:21;;;;;;;3.63;1.40;;;9.70;99.90;;;;;;4818474;29;20563;-73
2022/04/05 11:43:50;;;;;;;3.45;1.52;;;9.20;99.90;;;;;;4821085;29;20145;-80
2022/04/05 11:46:27;;;;;;;5.75;1.80;;;9.30;99.90;;;;;;4806321;29;20453;-75
2022/04/05 11:48:56;;;;;;;3.53;1.25;;;9.40;99.90;;;;;;4872650;29;20067;-76
2022/04/05 11:51:27;;;;;;;2.65;1.10;;;9.40;99.90;;;;;;4894582;29;20048;-72
2022/04/05 11:54:03;;;;;;;2.92;1.27;;;9.40;99.90;;;;;;4896560;29;20040;-77
2022/04/05 11:56:29;;;;;;;4.35;1.63;;;9.40;99.90;;;;;;4879826;29;20049;-70
2022/04/05 11:58:59;;;;;;;4.30;1.40;;;9.40;99.90;;;;;;4878196;29;20048;-72
2022/04/05 12:01:31;;;;;;;2.50;1.00;;;9.50;99.90;;;;;;4894089;29;20569;-72
2022/04/05 12:04:04;;;;;;;3.42;1.27;;;9.60;99.90;;;;;;4876540;29;20064;-72
2022/04/05 12:06:34;;;;;;;4.97;1.40;;;9.60;99.90;;;;;;4896619;29;20099;-72
2022/04/05 12:09:07;;;;;;;4.10;1.73;;;9.70;99.90;;;;;;4876810;29;20482;-76
2022/04/05 12:11:35;;;;;;;5.78;1.75;;;9.90;99.90;;;;;;4895339;29;20131;-76
2022/04/05 12:14:05;;;;;;;5.20;1.70;;;10.00;99.90;;;;;;4896254;29;20413;-75
2022/04/05 12:16:45;;;;;;;3.67;1.48;;;10.00;99.90;;;;;;4897076;29;20048;-78
2022/04/05 12:19:11;;;;;;;6.18;1.90;;;10.20;99.90;;;;;;4895972;29;20068;-71
2022/04/05 12:21:37;;;;;;;6.60;1.88;;;10.10;99.90;;;;;;4878602;29;20075;-79
2022/04/05 12:24:03;;;;;;;4.93;1.80;;;10.10;99.90;;;;;;4893866;29;20074;-75
2022/04/05 12:26:32;;;;;;;3.85;1.50;;;10.00;99.90;;;;;;4879529;29;20052;-75
2022/04/05 12:28:59;;;;;;;4.28;1.60;;;10.10;99.90;;;;;;4896815;29;20056;-78
2022/04/05 12:31:30;;;;;;;4.70;2.13;;;10.10;99.90;;;;;;4878515;29;20087;-75
2022/04/05 12:34:00;;;;;;;4.43;1.60;;;10.40;99.90;;;;;;4896684;29;20048;-79
2022/04/05 12:36:37;;;;;;;4.00;1.75;;;10.40;99.90;;;;;;4895485;29;20548;-69
2022/04/05 12:39:06;;;;;;;5.00;1.63;;;10.50;99.90;;;;;;4896177;29;20135;-73
2022/04/05 12:41:40;;;;;;;3.40;1.45;;;10.60;99.90;;;;;;4894751;29;20112;-73
2022/04/05 12:44:10;;;;;;;3.25;1.30;;;10.70;99.90;;;;;;4896114;29;20413;-73
2022/04/05 12:46:42;;;;;;;4.30;1.40;;;10.60;99.90;;;;;;4896413;29;20509;-74
2022/04/05 12:49:20;;;;;;;3.28;1.20;;;10.70;99.90;;;;;;4896261;29;20112;-70
2022/04/05 12:51:47;;;;;;;3.35;1.48;;;10.80;99.90;;;;;;4895673;29;20521;-74
2022/04/05 12:54:31;;;;;;;4.45;1.35;;;11.00;99.90;;;;;;4876742;29;20112;-78
2022/04/05 12:57:16;;;;;;;3.90;1.40;;;10.90;99.90;;;;;;4894635;29;20056;-70
2022/04/05 12:59:42;;;;;;;3.20;1.30;;;10.80;99.90;;;;;;4892023;29;20111;-78